Time;durP1;ratioP1;P1;durP2;ratioP2;P2;SDS_P1;SDS_P2;PMS_P1;PMS_P2;Temp;Humidity;BMP_temperature;BMP_pressure;BME280_temperature;BME280_humidity;BME280_pressure;Samples;Min_cycle;Max_cycle;Signal;HPM_P1;HPM_P2
2022/10/11 00:00:44;;;;;;;12.60;5.53;;;;;;;11.05;100.00;93530.63;2130537;27;20447;-71
2022/10/11 00:01:45;;;;;;;10.07;4.82;;;;;;;11.00;100.00;93536.47;2130629;27;20046;-71
2022/10/11 00:02:45;;;;;;;7.43;4.53;;;;;;;10.98;100.00;93528.84;2130276;27;20133;-70
2022/10/11 00:03:46;;;;;;;13.63;4.50;;;;;;;10.95;100.00;93526.22;2130924;27;20029;-69
2022/10/11 00:04:49;;;;;;;10.77;4.38;;;;;;;10.94;100.00;93525.47;2130888;27;20023;-71
2022/10/11 00:05:52;;;;;;;10.98;4.22;;;;;;;10.94;100.00;93533.50;2130835;27;20022;-69
2022/10/11 00:06:53;;;;;;;8.48;4.35;;;;;;;10.91;100.00;93528.97;2112586;28;20069;-71
2022/10/11 00:07:55;;;;;;;8.77;4.63;;;;;;;10.92;100.00;93533.13;2112378;28;20400;-73
2022/10/11 00:08:56;;;;;;;9.80;4.50;;;;;;;10.89;100.00;93528.63;2128710;27;20023;-69
2022/10/11 00:09:57;;;;;;;6.90;4.28;;;;;;;10.88;100.00;93526.34;2121579;27;20031;-70
2022/10/11 00:11:00;;;;;;;6.93;4.40;;;;;;;10.87;100.00;93527.50;2121485;27;20072;-69
2022/10/11 00:12:01;;;;;;;8.48;4.43;;;;;;;10.87;100.00;93532.84;2130764;27;20042;-69
2022/10/11 00:13:03;;;;;;;11.48;4.53;;;;;;;10.84;100.00;93532.53;2129411;27;20042;-69
2022/10/11 00:14:05;;;;;;;10.80;4.43;;;;;;;10.83;100.00;93532.91;2130621;27;20520;-71
2022/10/11 00:15:07;;;;;;;11.57;4.80;;;;;;;10.79;100.00;93530.28;2130410;27;20042;-70
2022/10/11 00:16:10;;;;;;;8.30;4.28;;;;;;;10.75;100.00;93531.50;2128070;27;20054;-70
2022/10/11 00:17:13;;;;;;;8.45;4.50;;;;;;;10.72;100.00;93535.00;2126666;27;20711;-69
2022/10/11 00:18:14;;;;;;;11.65;4.63;;;;;;;10.70;100.00;93531.97;2130339;27;20031;-70
2022/10/11 00:19:15;;;;;;;10.85;4.10;;;;;;;10.68;100.00;93532.38;2129898;27;20417;-70
2022/10/11 00:20:16;;;;;;;8.63;4.75;;;;;;;10.72;100.00;93535.00;2120797;27;20429;-70
2022/10/11 00:21:19;;;;;;;6.07;4.22;;;;;;;10.72;100.00;93527.75;2121143;27;20035;-70
2022/10/11 00:22:20;;;;;;;10.07;4.53;;;;;;;10.75;100.00;93534.19;2130719;27;20026;-70
2022/10/11 00:23:21;;;;;;;10.18;4.20;;;;;;;10.76;100.00;93523.09;2130708;27;20055;-72
2022/10/11 00:24:22;;;;;;;11.85;4.90;;;;;;;10.77;100.00;93532.63;2126412;27;20038;-70
2022/10/11 00:25:23;;;;;;;10.13;4.38;;;;;;;10.75;100.00;93529.59;2130504;27;20030;-70
2022/10/11 00:26:24;;;;;;;7.70;4.15;;;;;;;10.79;100.00;93540.22;2130783;27;20037;-70
2022/10/11 00:27:25;;;;;;;12.63;4.57;;;;;;;10.77;100.00;93534.53;2130762;27;20061;-70
2022/10/11 00:28:27;;;;;;;8.77;4.13;;;;;;;10.77;100.00;93516.56;2130631;27;20211;-69
2022/10/11 00:29:27;;;;;;;16.10;4.70;;;;;;;10.78;100.00;93522.69;2129899;27;20030;-70
2022/10/11 00:30:30;;;;;;;12.52;4.30;;;;;;;10.75;100.00;93529.59;2130668;27;20022;-70
2022/10/11 00:31:32;;;;;;;9.48;4.10;;;;;;;10.70;100.00;93524.69;2130226;27;20034;-71
2022/10/11 00:32:35;;;;;;;12.75;5.20;;;;;;;10.67;100.00;93532.78;2129534;27;20453;-71
2022/10/11 00:33:36;;;;;;;10.27;5.05;;;;;;;10.68;100.00;93526.28;2121217;27;20026;-70
2022/10/11 00:34:37;;;;;;;6.75;3.83;;;;;;;10.64;100.00;93523.66;2121079;27;20038;-71
2022/10/11 00:35:40;;;;;;;15.65;4.28;;;;;;;10.59;100.00;93527.56;2130625;27;20453;-71
2022/10/11 00:36:41;;;;;;;11.18;4.30;;;;;;;10.56;100.00;93522.25;2126009;27;20011;-71
2022/10/11 00:37:42;;;;;;;12.38;4.32;;;;;;;10.57;100.00;93529.84;2130848;27;20515;-70
2022/10/11 00:38:43;;;;;;;12.32;4.53;;;;;;;10.54;100.00;93528.00;2130402;27;20023;-70
2022/10/11 00:39:45;;;;;;;8.10;4.13;;;;;;;10.49;100.00;93533.81;2130362;27;20098;-72
2022/10/11 00:40:47;;;;;;;7.50;3.90;;;;;;;10.50;100.00;93529.97;2131020;27;20029;-71
2022/10/11 00:41:48;;;;;;;4.60;3.72;;;;;;;10.47;100.00;93530.78;2130762;27;20376;-71
2022/10/11 00:42:49;;;;;;;14.55;3.92;;;;;;;10.46;100.00;93545.31;2130087;27;20038;-71
2022/10/11 00:44:16;;;;;;;9.77;3.90;;;;;;;10.38;100.00;93530.53;2130282;27;20022;-70
2022/10/11 00:45:26;;;;;;;9.57;3.45;;;;;;;10.34;100.00;93532.50;2127984;27;20031;-70
2022/10/11 00:46:29;;;;;;;8.50;3.80;;;;;;;10.27;100.00;93532.59;2119361;27;20035;-73
2022/10/11 00:47:30;;;;;;;11.23;4.13;;;;;;;10.28;100.00;93528.78;2113209;28;20043;-71
2022/10/11 00:48:37;;;;;;;8.82;3.75;;;;;;;10.28;100.00;93531.44;2120931;27;20066;-70
2022/10/11 00:49:49;;;;;;;6.25;4.03;;;;;;;10.20;100.00;93532.69;2130207;27;20082;-70
2022/10/11 00:50:50;;;;;;;15.07;4.05;;;;;;;10.15;100.00;93525.88;2127785;27;20026;-71
2022/10/11 00:52:00;;;;;;;4.82;3.40;;;;;;;10.14;100.00;93527.03;2131142;27;20091;-73
2022/10/11 00:53:06;;;;;;;8.13;3.72;;;;;;;10.00;100.00;93527.19;2130629;27;20122;-70
2022/10/11 00:54:12;;;;;;;8.90;3.50;;;;;;;9.95;100.00;93531.06;2129781;27;20026;-71
2022/10/11 00:55:17;;;;;;;6.45;3.97;;;;;;;9.97;100.00;93530.69;2125977;27;20624;-71
2022/10/11 00:56:26;;;;;;;7.15;3.80;;;;;;;9.97;100.00;93531.44;2127467;27;20023;-70
2022/10/11 00:57:33;;;;;;;12.38;3.88;;;;;;;9.94;100.00;93528.81;2130520;27;20022;-73
2022/10/11 00:58:35;;;;;;;16.63;3.53;;;;;;;9.90;100.00;93531.53;2130390;27;20027;-71
2022/10/11 00:59:41;;;;;;;7.32;3.88;;;;;;;9.90;100.00;93530.78;2129744;27;20023;-71
2022/10/11 01:00:42;;;;;;;8.73;3.25;;;;;;;9.86;100.00;93535.41;2125191;27;20030;-71
2022/10/11 01:01:43;;;;;;;5.75;3.45;;;;;;;9.82;100.00;93538.09;2117518;27;20058;-71
2022/10/11 01:02:45;;;;;;;7.93;3.63;;;;;;;9.81;100.00;93539.25;2121368;27;20086;-73
2022/10/11 01:03:46;;;;;;;10.60;3.60;;;;;;;9.79;100.00;93537.00;2130556;27;20034;-70
2022/10/11 01:04:48;;;;;;;8.77;3.47;;;;;;;9.72;100.00;93537.09;2130269;27;20019;-70
2022/10/11 01:05:50;;;;;;;6.10;3.00;;;;;;;9.69;100.00;93537.88;2129849;27;20051;-70
2022/10/11 01:06:52;;;;;;;4.53;2.85;;;;;;;9.71;100.00;93530.22;2123150;27;20098;-70
2022/10/11 01:07:53;;;;;;;6.82;3.38;;;;;;;9.69;100.00;93537.88;2120836;27;20019;-71
2022/10/11 01:08:55;;;;;;;11.02;3.58;;;;;;;9.71;100.00;93537.50;2121162;27;20727;-70
2022/10/11 01:09:56;;;;;;;6.07;3.63;;;;;;;9.78;100.00;93540.06;2130296;27;20026;-69
2022/10/11 01:10:58;;;;;;;6.75;3.45;;;;;;;9.77;100.00;93535.88;2130542;27;20145;-70
2022/10/11 01:12:03;;;;;;;5.18;3.22;;;;;;;9.79;100.00;93544.25;2129859;27;20025;-69
2022/10/11 01:13:25;;;;;;;9.77;3.42;;;;;;;9.80;100.00;93540.44;2130448;27;20600;-69
2022/10/11 01:14:56;;;;;;;6.80;3.60;;;;;;;9.85;100.00;93539.97;2119354;27;20122;-69
2022/10/11 01:16:13;;;;;;;8.65;3.95;;;;;;;9.87;100.00;93529.66;2112778;28;20028;-70
2022/10/11 01:17:27;;;;;;;9.30;4.03;;;;;;;9.90;100.00;93538.78;2117505;27;20038;-69
2022/10/11 01:19:00;;;;;;;6.53;3.30;;;;;;;9.92;100.00;93531.91;2121352;27;20106;-69
2022/10/11 01:20:26;;;;;;;4.32;2.85;;;;;;;9.95;100.00;93535.66;2116121;27;20099;-69
2022/10/11 01:22:05;;;;;;;5.90;3.28;;;;;;;10.06;100.00;93533.63;2121834;27;20031;-72
2022/10/11 01:23:15;;;;;;;4.78;3.08;;;;;;;10.03;100.00;93532.50;2110905;27;20034;-69
2022/10/11 01:24:27;;;;;;;17.25;3.40;;;;;;;9.93;100.00;93532.66;2118963;27;20046;-70
2022/10/11 01:25:53;;;;;;;7.00;2.85;;;;;;;9.96;100.00;93534.50;2121578;27;20075;-68
2022/10/11 01:27:24;;;;;;;7.78;3.90;;;;;;;9.98;100.00;93532.94;2114910;27;20043;-71
2022/10/11 01:28:43;;;;;;;8.43;3.17;;;;;;;10.05;100.00;93540.88;2119445;27;20102;-70
2022/10/11 01:30:18;;;;;;;4.97;2.80;;;;;;;10.09;100.00;93535.47;2117612;27;20027;-71
2022/10/11 01:31:37;;;;;;;8.27;3.30;;;;;;;10.05;100.00;93529.41;2118640;27;20381;-68
2022/10/11 01:33:02;;;;;;;7.40;3.60;;;;;;;10.02;100.00;93535.59;2121005;27;20445;-70
2022/10/11 01:34:13;;;;;;;5.68;2.95;;;;;;;10.04;100.00;93535.94;2120521;27;20389;-70
2022/10/11 01:35:45;;;;;;;5.43;3.15;;;;;;;10.07;100.00;93535.88;2117561;27;20023;-70
2022/10/11 01:37:02;;;;;;;6.18;3.58;;;;;;;10.09;100.00;93530.13;2117857;27;20023;-69
2022/10/11 01:38:18;;;;;;;5.47;2.83;;;;;;;10.08;100.00;93532.06;2121079;27;20646;-69
2022/10/11 01:39:27;;;;;;;8.73;3.65;;;;;;;10.06;100.00;93529.03;2114321;27;20110;-69
2022/10/11 01:40:44;;;;;;;10.30;3.70;;;;;;;10.04;100.00;93534.00;2121726;27;20779;-70
2022/10/11 01:41:48;;;;;;;6.40;2.85;;;;;;;9.98;100.00;93529.53;2113219;28;20048;-69
2022/10/11 01:42:50;;;;;;;4.97;3.17;;;;;;;10.00;100.00;93524.53;2119861;27;20054;-69
2022/10/11 01:43:57;;;;;;;6.13;3.00;;;;;;;9.96;100.00;93526.47;2121298;27;20675;-68
2022/10/11 01:44:59;;;;;;;6.20;3.10;;;;;;;9.91;100.00;93525.03;2121410;27;20023;-69
2022/10/11 01:46:01;;;;;;;7.22;3.70;;;;;;;9.96;100.00;93519.22;2121831;27;20023;-69
2022/10/11 01:47:02;;;;;;;6.88;3.05;;;;;;;9.95;100.00;93522.31;2122109;27;20155;-68
2022/10/11 01:48:07;;;;;;;7.80;3.30;;;;;;;9.95;100.00;93517.72;2121018;27;20102;-71
2022/10/11 01:49:08;;;;;;;6.60;3.40;;;;;;;9.94;100.00;93518.88;2121056;27;20023;-71
2022/10/11 01:50:39;;;;;;;9.15;3.80;;;;;;;9.98;100.00;93516.94;2121247;27;20125;-69
2022/10/11 01:51:45;;;;;;;9.98;3.80;;;;;;;9.89;100.00;93516.66;2121456;27;20046;-69
2022/10/11 01:52:47;;;;;;;5.65;3.15;;;;;;;9.87;100.00;93510.19;2118074;27;20019;-69
2022/10/11 01:54:03;;;;;;;5.72;2.85;;;;;;;9.86;100.00;93525.47;2120836;27;20027;-69
2022/10/11 01:55:16;;;;;;;7.50;3.00;;;;;;;9.89;100.00;93518.59;2121459;27;20053;-69
2022/10/11 01:56:35;;;;;;;8.45;3.10;;;;;;;9.88;100.00;93511.72;2117314;27;20055;-69
2022/10/11 01:57:54;;;;;;;9.35;3.13;;;;;;;9.89;100.00;93513.25;2121510;27;20023;-70
2022/10/11 01:59:17;;;;;;;5.57;2.83;;;;;;;9.80;100.00;93519.06;2116329;27;20027;-70
2022/10/11 02:00:21;;;;;;;5.22;3.00;;;;;;;9.79;100.00;93515.66;2114037;28;20460;-71
2022/10/11 02:01:48;;;;;;;8.00;3.05;;;;;;;9.80;100.00;93516.41;2120257;27;20402;-69
2022/10/11 02:02:55;;;;;;;5.70;2.92;;;;;;;9.83;100.00;93520.91;2112173;27;20105;-69
2022/10/11 02:04:10;;;;;;;8.93;3.60;;;;;;;9.76;100.00;93515.69;2117773;27;20411;-70
2022/10/11 02:05:22;;;;;;;7.75;3.15;;;;;;;9.75;100.00;93511.50;2117158;27;20027;-69
2022/10/11 02:06:59;;;;;;;6.88;2.83;;;;;;;9.69;100.00;93516.50;2121290;27;20058;-70
2022/10/11 02:08:24;;;;;;;8.82;3.05;;;;;;;9.78;100.00;93516.03;2116804;27;20039;-69
2022/10/11 02:09:34;;;;;;;5.10;3.08;;;;;;;9.70;100.00;93519.94;2118294;27;20027;-70
2022/10/11 02:10:50;;;;;;;7.38;3.53;;;;;;;9.62;100.00;93521.19;2121534;27;20026;-70
2022/10/11 02:11:56;;;;;;;9.50;3.25;;;;;;;9.66;100.00;93529.91;2118439;28;20654;-71
2022/10/11 02:13:06;;;;;;;7.18;2.80;;;;;;;9.67;100.00;93520.75;2121052;27;20044;-70
2022/10/11 02:15:57;;;;;;;;;;;;;;;9.72;100.00;93521.06;2135650;27;20178;-68
2022/10/11 02:17:09;;;;;;;6.72;3.13;;;;;;;9.74;100.00;93521.41;2128784;27;20024;-69
2022/10/11 02:18:22;;;;;;;5.78;3.40;;;;;;;9.75;100.00;93524.84;2128252;27;20023;-69
2022/10/11 02:19:28;;;;;;;5.90;2.72;;;;;;;9.74;100.00;93516.06;2123470;27;20130;-70
2022/10/11 02:20:32;;;;;;;11.40;3.92;;;;;;;9.79;100.00;93518.31;2123172;27;20038;-72
2022/10/11 02:21:37;;;;;;;5.43;3.65;;;;;;;9.74;100.00;93516.06;2127753;27;20023;-69
2022/10/11 02:22:43;;;;;;;7.00;3.50;;;;;;;9.72;100.00;93518.41;2119500;28;20621;-70
2022/10/11 02:24:00;;;;;;;9.13;3.60;;;;;;;9.76;100.00;93516.44;2117704;27;20031;-68
2022/10/11 02:25:07;;;;;;;8.43;3.85;;;;;;;9.75;100.00;93519.53;2127771;27;20038;-67
2022/10/11 02:26:10;;;;;;;7.97;3.42;;;;;;;9.79;100.00;93514.91;2125590;27;20019;-68
2022/10/11 02:27:14;;;;;;;11.45;3.75;;;;;;;9.78;100.00;93519.44;2127861;27;20023;-71
2022/10/11 02:28:28;;;;;;;7.30;3.53;;;;;;;9.74;100.00;93515.31;2128700;27;20054;-72
2022/10/11 02:29:33;;;;;;;13.52;3.20;;;;;;;9.69;100.00;93518.44;2119549;28;20025;-70
2022/10/11 02:30:36;;;;;;;11.13;3.33;;;;;;;9.58;100.00;93511.31;2119496;27;20028;-69
2022/10/11 02:31:39;;;;;;;8.52;3.50;;;;;;;9.60;100.00;93518.91;2128352;27;20122;-68
2022/10/11 02:32:43;;;;;;;6.75;3.53;;;;;;;9.57;100.00;93514.41;2128687;27;20027;-69
2022/10/11 02:33:52;;;;;;;9.48;3.55;;;;;;;9.61;100.00;93514.31;2115699;28;20489;-69
2022/10/11 02:34:56;;;;;;;10.95;3.25;;;;;;;9.61;100.00;93512.41;2120881;27;20071;-71
2022/10/11 02:36:04;;;;;;;7.22;3.55;;;;;;;9.59;100.00;93512.06;2127354;27;20414;-70
2022/10/11 02:37:40;;;;;;;12.23;3.55;;;;;;;9.61;100.00;93514.31;2128143;27;20034;-70
2022/10/11 02:38:49;;;;;;;8.50;3.70;;;;;;;9.61;100.00;93504.41;2124698;27;20163;-71
2022/10/11 02:40:08;;;;;;;6.72;2.97;;;;;;;9.59;100.00;93517.41;2128627;27;20457;-71
2022/10/11 02:41:35;;;;;;;7.50;3.03;;;;;;;9.40;100.00;93518.78;2127516;27;20354;-70
2022/10/11 02:42:43;;;;;;;5.32;3.38;;;;;;;9.40;100.00;93516.09;2128454;27;20042;-70
2022/10/11 02:43:56;;;;;;;9.10;3.17;;;;;;;9.39;100.00;93517.22;2115690;28;20408;-69
2022/10/11 02:45:02;;;;;;;6.78;2.80;;;;;;;9.45;100.00;93518.31;2112516;28;20036;-69
2022/10/11 02:46:06;;;;;;;11.45;3.35;;;;;;;9.44;100.00;93516.81;2120053;27;20149;-70
2022/10/11 02:47:07;;;;;;;4.63;3.20;;;;;;;9.46;100.00;93517.16;2123366;27;20027;-70
2022/10/11 02:48:11;;;;;;;11.52;3.50;;;;;;;9.48;100.00;93514.88;2128444;27;20338;-70
2022/10/11 02:49:13;;;;;;;5.90;3.60;;;;;;;9.43;100.00;93517.94;2115399;28;20114;-70
2022/10/11 02:50:15;;;;;;;10.02;3.17;;;;;;;9.46;100.00;93519.84;2119598;27;20134;-69
2022/10/11 02:51:17;;;;;;;4.57;2.65;;;;;;;9.45;100.00;93515.66;2128622;27;20548;-70
2022/10/11 02:52:18;;;;;;;7.03;2.97;;;;;;;9.37;100.00;93516.88;2127590;27;20560;-70
2022/10/11 02:53:20;;;;;;;7.85;3.42;;;;;;;9.34;100.00;93517.66;2128619;27;20110;-69
2022/10/11 02:54:21;;;;;;;9.23;3.58;;;;;;;9.30;100.00;93515.03;2128028;27;20069;-70
2022/10/11 02:55:23;;;;;;;7.15;3.60;;;;;;;9.25;100.00;93518.13;2127998;27;20142;-71
2022/10/11 02:56:24;;;;;;;5.53;3.28;;;;;;;9.27;100.00;93515.09;2128388;27;20392;-72
2022/10/11 02:57:25;;;;;;;8.82;3.72;;;;;;;9.26;100.00;93518.91;2122757;27;20031;-70
2022/10/11 02:58:26;;;;;;;7.93;3.47;;;;;;;9.26;100.00;93516.22;2128491;27;20026;-70
2022/10/11 02:59:27;;;;;;;7.82;3.00;;;;;;;9.23;100.00;93523.13;2119333;28;20028;-70
2022/10/11 03:00:28;;;;;;;6.20;3.20;;;;;;;9.21;100.00;93522.75;2119095;27;20023;-70
2022/10/11 03:01:29;;;;;;;9.52;3.17;;;;;;;9.16;100.00;93522.44;2128253;27;20042;-70
2022/10/11 03:02:30;;;;;;;9.52;3.50;;;;;;;9.14;100.00;93524.75;2127810;27;20412;-70
2022/10/11 03:03:31;;;;;;;7.30;3.03;;;;;;;9.14;100.00;93519.41;2119408;28;20355;-70
2022/10/11 03:04:32;;;;;;;7.82;3.38;;;;;;;9.14;100.00;93516.75;2119320;27;20023;-72
2022/10/11 03:05:39;;;;;;;10.38;3.70;;;;;;;9.18;100.00;93528.91;2128454;27;20061;-71
2022/10/11 03:06:40;;;;;;;8.00;3.33;;;;;;;9.18;100.00;93525.47;2127959;27;20079;-70
2022/10/11 03:07:41;;;;;;;10.10;3.72;;;;;;;9.12;100.00;93521.72;2125359;27;20027;-71
2022/10/11 03:08:42;;;;;;;4.72;3.30;;;;;;;9.10;100.00;93521.38;2128321;27;20449;-71
2022/10/11 03:09:43;;;;;;;8.50;3.13;;;;;;;9.07;100.00;93515.66;2119128;28;20023;-72
2022/10/11 03:10:44;;;;;;;8.00;3.05;;;;;;;9.14;100.00;93528.19;2119511;27;20035;-71
2022/10/11 03:11:45;;;;;;;9.60;3.25;;;;;;;9.17;100.00;93523.94;2127845;27;20018;-71
2022/10/11 03:12:46;;;;;;;6.38;3.53;;;;;;;9.14;100.00;93524.75;2127223;27;20043;-73
2022/10/11 03:13:47;;;;;;;11.30;3.30;;;;;;;9.01;100.00;93521.81;2128329;27;20125;-73
2022/10/11 03:14:48;;;;;;;5.90;3.67;;;;;;;9.02;100.00;93526.75;2128358;27;20437;-71
2022/10/11 03:15:51;;;;;;;8.15;3.72;;;;;;;9.03;100.00;93519.50;2127839;27;20128;-70
2022/10/11 03:16:52;;;;;;;6.22;3.63;;;;;;;9.02;100.00;93528.66;2128226;27;20049;-70
2022/10/11 03:17:54;;;;;;;5.53;3.38;;;;;;;9.00;100.00;93523.72;2127154;27;20023;-73
2022/10/11 03:18:57;;;;;;;8.68;3.40;;;;;;;8.99;100.00;93530.19;2118723;28;20354;-70
2022/10/11 03:19:58;;;;;;;7.43;3.38;;;;;;;8.96;100.00;93524.91;2119632;27;20027;-73
2022/10/11 03:20:59;;;;;;;5.45;3.35;;;;;;;8.82;100.00;93528.44;2128227;27;20030;-70
2022/10/11 03:22:00;;;;;;;9.00;3.20;;;;;;;8.78;100.00;93519.72;2128377;27;20019;-71
2022/10/11 03:23:01;;;;;;;11.63;3.47;;;;;;;8.77;100.00;93526.97;2127212;27;20035;-70
2022/10/11 03:24:02;;;;;;;4.65;2.72;;;;;;;8.81;100.00;93518.94;2119993;27;20107;-72
2022/10/11 03:25:03;;;;;;;6.50;3.00;;;;;;;8.84;100.00;93515.50;2119113;27;20072;-73
2022/10/11 03:26:04;;;;;;;7.05;3.90;;;;;;;8.84;100.00;93515.50;2128692;27;20027;-71
2022/10/11 03:27:05;;;;;;;5.03;3.00;;;;;;;8.86;100.00;93520.41;2124210;27;20023;-71
2022/10/11 03:28:06;;;;;;;6.72;3.17;;;;;;;8.86;100.00;93517.75;2110186;28;20275;-71
2022/10/11 03:29:07;;;;;;;7.43;3.40;;;;;;;8.82;100.00;93523.91;2109060;27;20454;-72
2022/10/11 03:30:09;;;;;;;6.03;3.45;;;;;;;8.79;100.00;93516.69;2122945;27;20453;-73
2022/10/11 03:31:11;;;;;;;8.35;3.33;;;;;;;8.75;100.00;93521.28;2122539;27;20034;-72
2022/10/11 03:32:12;;;;;;;4.72;3.22;;;;;;;8.75;100.00;93525.84;2118495;27;20080;-71
2022/10/11 03:33:13;;;;;;;6.85;2.83;;;;;;;8.71;100.00;93522.47;2120062;27;20084;-70
2022/10/11 03:34:14;;;;;;;3.38;2.83;;;;;;;8.67;100.00;93521.72;2122536;27;20031;-70
2022/10/11 03:35:15;;;;;;;9.13;3.25;;;;;;;8.69;100.00;93527.41;2122472;27;20055;-71
2022/10/11 03:36:16;;;;;;;13.30;4.25;;;;;;;8.66;100.00;93526.31;2122334;27;20102;-70
2022/10/11 03:37:17;;;;;;;7.93;3.45;;;;;;;8.57;100.00;93523.34;2122436;27;20031;-70
2022/10/11 03:38:21;;;;;;;6.32;3.25;;;;;;;8.59;100.00;93521.03;2122714;27;20015;-71
2022/10/11 03:39:22;;;;;;;4.05;2.63;;;;;;;8.62;100.00;93514.16;2123037;27;20034;-70
2022/10/11 03:40:23;;;;;;;6.70;3.08;;;;;;;8.58;100.00;93532.84;2122471;27;20707;-72
2022/10/11 03:41:24;;;;;;;6.95;2.92;;;;;;;8.57;100.00;93520.66;2122635;27;20035;-72
2022/10/11 03:42:25;;;;;;;7.50;2.95;;;;;;;8.56;100.00;93519.16;2121882;27;20027;-70
2022/10/11 03:43:26;;;;;;;5.28;2.65;;;;;;;8.55;100.00;93523.72;2121233;27;20023;-70
2022/10/11 03:44:27;;;;;;;6.18;2.88;;;;;;;8.53;100.00;93520.69;2113218;28;20501;-72
2022/10/11 03:45:28;;;;;;;6.00;2.85;;;;;;;8.55;100.00;93522.94;2113188;28;20481;-70
2022/10/11 03:46:29;;;;;;;5.15;2.72;;;;;;;8.48;100.00;93526.44;2122251;27;20057;-70
2022/10/11 03:47:31;;;;;;;6.97;3.20;;;;;;;8.50;100.00;93520.72;2122073;27;20130;-70
2022/10/11 03:48:32;;;;;;;5.93;3.30;;;;;;;8.48;100.00;93512.38;2121954;27;20038;-70
2022/10/11 03:49:34;;;;;;;5.25;2.78;;;;;;;8.50;100.00;93523.38;2121933;27;20027;-71
2022/10/11 03:50:36;;;;;;;6.28;3.03;;;;;;;8.46;100.00;93519.97;2120936;27;20384;-72
2022/10/11 03:51:37;;;;;;;5.53;2.80;;;;;;;8.42;100.00;93525.31;2122450;27;20072;-72
2022/10/11 03:52:37;;;;;;;4.55;2.97;;;;;;;8.43;100.00;93521.53;2122310;27;20027;-72
2022/10/11 03:53:38;;;;;;;4.65;2.72;;;;;;;8.43;100.00;93518.09;2122191;27;20087;-70
2022/10/11 03:54:40;;;;;;;7.68;3.10;;;;;;;8.46;100.00;93514.66;2121077;27;20102;-71
2022/10/11 03:55:41;;;;;;;5.13;2.75;;;;;;;8.46;100.00;93518.06;2121974;27;20023;-70
2022/10/11 03:56:42;;;;;;;10.10;3.35;;;;;;;8.51;100.00;93525.63;2122610;27;20473;-71
2022/10/11 03:57:43;;;;;;;8.60;3.60;;;;;;;8.51;100.00;93530.97;2122405;27;20023;-70
2022/10/11 03:58:44;;;;;;;7.72;3.10;;;;;;;8.50;100.00;93518.03;2122448;27;20539;-70
2022/10/11 03:59:45;;;;;;;9.85;3.30;;;;;;;8.48;100.00;93518.44;2122233;27;20088;-73
2022/10/11 04:00:45;;;;;;;7.22;3.20;;;;;;;8.54;100.00;93521.44;2121921;27;20087;-71
2022/10/11 04:01:46;;;;;;;5.82;3.20;;;;;;;8.57;100.00;93523.34;2122343;27;20402;-72
2022/10/11 04:02:47;;;;;;;5.30;3.20;;;;;;;8.61;100.00;93520.66;2122112;27;20027;-70
2022/10/11 04:03:49;;;;;;;5.65;3.25;;;;;;;8.58;100.00;93525.59;2118215;27;20034;-71
2022/10/11 04:04:50;;;;;;;6.72;3.55;;;;;;;8.62;100.00;93524.81;2121610;27;20054;-70
2022/10/11 04:05:51;;;;;;;6.18;3.20;;;;;;;8.61;100.00;93533.97;2122489;27;20438;-70
2022/10/11 04:06:52;;;;;;;10.13;3.60;;;;;;;8.69;100.00;93527.41;2121617;27;20090;-72
2022/10/11 04:07:53;;;;;;;7.50;3.15;;;;;;;8.75;100.00;93531.94;2121963;27;20050;-70
2022/10/11 04:08:54;;;;;;;12.20;3.72;;;;;;;8.79;100.00;93537.25;2113066;28;20023;-70
2022/10/11 04:09:55;;;;;;;8.02;3.65;;;;;;;8.78;100.00;93533.81;2112513;27;20216;-70
2022/10/11 04:10:56;;;;;;;7.28;3.60;;;;;;;8.79;100.00;93527.34;2122243;27;20019;-70
2022/10/11 04:11:57;;;;;;;6.72;3.55;;;;;;;8.82;100.00;93528.44;2121875;27;20092;-72
2022/10/11 04:12:58;;;;;;;8.20;3.70;;;;;;;8.86;100.00;93528.41;2121826;27;20103;-72
2022/10/11 04:13:59;;;;;;;6.88;3.78;;;;;;;8.85;100.00;93529.56;2122286;27;20472;-70
2022/10/11 04:15:00;;;;;;;9.85;3.75;;;;;;;8.80;100.00;93525.44;2121009;27;20031;-73
2022/10/11 04:16:01;;;;;;;7.07;3.20;;;;;;;8.83;100.00;93536.06;2122346;27;20062;-70
2022/10/11 04:17:02;;;;;;;10.85;3.60;;;;;;;8.85;100.00;93533.00;2121948;27;20030;-70
2022/10/11 04:18:05;;;;;;;11.10;4.30;;;;;;;8.81;100.00;93533.03;2121600;27;20023;-71
2022/10/11 04:19:06;;;;;;;5.38;3.15;;;;;;;8.85;100.00;93524.25;2113110;28;20085;-74
2022/10/11 04:20:07;;;;;;;9.93;3.42;;;;;;;8.85;100.00;93533.00;2112138;28;20023;-70
2022/10/11 04:21:08;;;;;;;9.40;3.88;;;;;;;8.92;100.00;93527.63;2122111;27;20023;-73
2022/10/11 04:22:09;;;;;;;7.85;3.35;;;;;;;8.97;100.00;93535.19;2113016;28;20110;-73
2022/10/11 04:23:10;;;;;;;12.77;3.80;;;;;;;8.96;100.00;93531.00;2113211;27;20440;-70
2022/10/11 04:24:11;;;;;;;10.57;3.80;;;;;;;9.00;100.00;93533.63;2119175;27;20144;-72
2022/10/11 04:25:12;;;;;;;9.63;3.90;;;;;;;9.00;100.00;93531.72;2121140;27;20028;-72
2022/10/11 04:26:13;;;;;;;10.35;3.70;;;;;;;9.03;100.00;93532.84;2115583;27;20110;-72
2022/10/11 04:27:15;;;;;;;7.70;3.63;;;;;;;9.07;100.00;93533.56;2112810;28;20059;-72
2022/10/11 04:28:16;;;;;;;12.20;3.75;;;;;;;9.07;100.00;93530.91;2113172;28;20035;-74
2022/10/11 04:29:17;;;;;;;6.32;3.65;;;;;;;9.12;100.00;93529.72;2122093;27;20042;-71
2022/10/11 04:30:18;;;;;;;10.95;4.32;;;;;;;9.12;100.00;93524.38;2121127;27;20027;-75
2022/10/11 04:31:20;;;;;;;10.25;4.13;;;;;;;9.07;100.00;93525.56;2120934;27;20027;-72
2022/10/11 04:32:22;;;;;;;11.20;3.90;;;;;;;9.04;100.00;93529.00;2121880;27;20095;-73
2022/10/11 04:33:23;;;;;;;7.72;3.58;;;;;;;9.08;100.00;93527.81;2122284;27;20035;-73
2022/10/11 04:34:24;;;;;;;4.80;3.65;;;;;;;9.10;100.00;93526.69;2122099;27;20469;-75
2022/10/11 04:35:28;;;;;;;7.47;4.00;;;;;;;9.13;100.00;93533.88;2121902;27;20027;-76
2022/10/11 04:36:31;;;;;;;9.23;3.72;;;;;;;9.11;100.00;93536.19;2111598;28;20647;-73
2022/10/11 04:37:32;;;;;;;7.05;3.47;;;;;;;9.06;100.00;93529.38;2112823;28;20173;-71
2022/10/11 04:38:33;;;;;;;8.68;3.83;;;;;;;9.12;100.00;93529.72;2119957;27;20026;-71
2022/10/11 04:39:34;;;;;;;11.68;3.72;;;;;;;9.17;100.00;93531.94;2115849;27;20645;-71
2022/10/11 04:40:35;;;;;;;11.65;3.90;;;;;;;9.22;100.00;93542.19;2117580;27;20050;-71
2022/10/11 04:41:36;;;;;;;9.40;4.75;;;;;;;9.23;100.00;93533.03;2118101;27;20034;-73
2022/10/11 04:42:37;;;;;;;7.97;3.67;;;;;;;9.23;100.00;93541.81;2110060;28;20031;-70
2022/10/11 04:43:38;;;;;;;7.95;3.55;;;;;;;9.20;100.00;93544.50;2109397;28;20572;-69
2022/10/11 04:44:39;;;;;;;8.90;4.32;;;;;;;9.16;100.00;93539.19;2117557;27;20027;-71
2022/10/11 04:45:41;;;;;;;8.75;3.47;;;;;;;9.19;100.00;93543.00;2118643;27;20499;-70
2022/10/11 04:46:43;;;;;;;8.40;3.70;;;;;;;9.18;100.00;93544.91;2117821;27;20416;-70
2022/10/11 04:47:44;;;;;;;10.38;4.57;;;;;;;9.19;100.00;93543.00;2119421;27;20130;-71
2022/10/11 04:48:47;;;;;;;7.97;3.60;;;;;;;9.29;100.00;93548.22;2119377;27;20106;-71
2022/10/11 04:49:47;;;;;;;13.05;3.92;;;;;;;9.34;100.00;93542.44;2119081;27;20050;-70
2022/10/11 04:50:48;;;;;;;6.47;3.63;;;;;;;9.40;100.00;93544.69;2118556;27;20031;-70
2022/10/11 04:51:50;;;;;;;5.80;3.40;;;;;;;9.44;100.00;93542.72;2118623;27;20015;-70
2022/10/11 04:52:51;;;;;;;9.32;3.50;;;;;;;9.50;100.00;93541.91;2119210;27;20076;-70
2022/10/11 04:53:52;;;;;;;8.75;4.13;;;;;;;9.47;100.00;93537.34;2119296;27;20027;-70
2022/10/11 04:54:53;;;;;;;9.65;3.58;;;;;;;9.50;100.00;93541.16;2115415;27;20039;-70
2022/10/11 04:56:06;;;;;;;7.80;3.58;;;;;;;9.51;100.00;93548.75;2118748;27;20613;-73
2022/10/11 04:57:07;;;;;;;13.10;4.30;;;;;;;9.51;100.00;93548.00;2109440;28;20088;-71
2022/10/11 04:58:08;;;;;;;12.52;3.83;;;;;;;9.46;100.00;93545.75;2110392;27;20031;-70
2022/10/11 04:59:09;;;;;;;11.93;4.38;;;;;;;9.48;100.00;93544.22;2119752;27;20038;-71
2022/10/11 05:00:11;;;;;;;7.43;4.18;;;;;;;9.50;100.00;93552.56;2119355;27;20027;-73
2022/10/11 05:01:12;;;;;;;11.88;3.80;;;;;;;9.55;100.00;93554.06;2115320;27;20031;-71
2022/10/11 05:02:13;;;;;;;7.38;3.97;;;;;;;9.56;100.00;93555.56;2114375;27;20036;-73
2022/10/11 05:03:14;;;;;;;13.82;3.90;;;;;;;9.59;100.00;93547.50;2110043;28;20932;-70
2022/10/11 05:04:15;;;;;;;10.55;3.80;;;;;;;9.59;100.00;93552.09;2110488;28;20035;-71
2022/10/11 05:05:16;;;;;;;9.45;4.03;;;;;;;9.54;100.00;93558.63;2119804;27;20457;-71
2022/10/11 05:06:18;;;;;;;6.18;4.05;;;;;;;9.51;100.00;93548.00;2119525;27;20058;-71